Time;durP1;ratioP1;P1;durP2;ratioP2;P2;SDS_P1;SDS_P2;PMS_P1;PMS_P2;Temp;Humidity;BMP_temperature;BMP_pressure;BME280_temperature;BME280_humidity;BME280_pressure;Samples;Min_cycle;Max_cycle;Signal;HPM_P1;HPM_P2
2022/07/17 00:00:42;;;;;;;7.22;1.40;;;15.00;99.90;;;;;;5073008;28;20464;-76
2022/07/17 00:03:15;;;;;;;4.25;1.35;;;14.90;99.90;;;;;;5074145;28;20039;-76
2022/07/17 00:05:41;;;;;;;7.55;1.50;;;14.90;99.90;;;;;;5072761;28;20136;-76
2022/07/17 00:08:08;;;;;;;10.85;1.75;;;14.90;99.90;;;;;;5074170;28;20048;-76
2022/07/17 00:10:35;;;;;;;7.05;1.85;;;14.90;99.90;;;;;;5073951;28;20463;-76
2022/07/17 00:13:01;;;;;;;5.60;1.83;;;14.90;99.90;;;;;;5073084;28;20049;-76
2022/07/17 00:15:27;;;;;;;6.80;1.63;;;14.90;99.90;;;;;;5073981;28;20040;-76
2022/07/17 00:17:53;;;;;;;5.78;1.48;;;14.80;99.90;;;;;;5074080;28;20120;-76
2022/07/17 00:20:18;;;;;;;4.22;1.48;;;14.80;99.90;;;;;;5073795;28;20555;-76
2022/07/17 00:22:44;;;;;;;7.15;1.30;;;14.80;99.90;;;;;;5073959;28;20060;-76
2022/07/17 00:25:10;;;;;;;6.57;1.63;;;14.80;99.90;;;;;;5073903;28;20064;-76
2022/07/17 00:27:37;;;;;;;4.75;1.63;;;14.80;99.90;;;;;;5072840;28;20049;-76
2022/07/17 00:30:04;;;;;;;5.78;1.40;;;14.70;99.90;;;;;;5073832;28;20083;-76
2022/07/17 00:32:29;;;;;;;4.18;1.35;;;14.70;99.90;;;;;;5073748;28;20049;-76
2022/07/17 00:34:55;;;;;;;9.27;1.42;;;14.60;99.90;;;;;;5089241;28;20046;-76
2022/07/17 00:37:21;;;;;;;5.60;1.67;;;14.70;99.90;;;;;;5073654;28;20123;-76
2022/07/17 00:39:47;;;;;;;5.20;1.35;;;14.70;99.90;;;;;;5073735;28;20120;-76
2022/07/17 00:42:14;;;;;;;3.22;1.35;;;14.70;99.90;;;;;;5073692;28;20445;-76
2022/07/17 00:44:41;;;;;;;8.43;1.65;;;14.70;99.90;;;;;;5073626;28;20032;-76
2022/07/17 00:47:24;;;;;;;6.50;1.42;;;14.60;99.90;;;;;;5073701;28;20048;-76
2022/07/17 00:49:50;;;;;;;4.95;1.80;;;14.60;99.90;;;;;;5073503;28;20433;-76
2022/07/17 00:52:17;;;;;;;5.10;1.70;;;14.60;99.90;;;;;;5073456;28;20040;-76
2022/07/17 00:54:44;;;;;;;5.70;1.73;;;14.50;99.90;;;;;;5072298;28;20098;-76
2022/07/17 00:57:13;;;;;;;6.88;2.13;;;14.40;99.90;;;;;;5072552;28;20101;-76
2022/07/17 00:59:39;;;;;;;3.80;1.65;;;14.30;99.90;;;;;;5072045;28;20396;-76
2022/07/17 01:02:07;;;;;;;5.80;1.70;;;14.20;99.90;;;;;;5072164;28;20047;-76
2022/07/17 01:04:34;;;;;;;8.38;2.30;;;14.10;99.90;;;;;;5073365;28;20048;-76
2022/07/17 01:07:02;;;;;;;8.50;2.47;;;14.00;99.90;;;;;;5073461;28;20041;-76
2022/07/17 01:09:28;;;;;;;5.68;2.40;;;14.00;99.90;;;;;;5090026;28;20040;-76
2022/07/17 01:11:54;;;;;;;6.65;2.38;;;13.80;99.90;;;;;;5077198;28;20394;-76
2022/07/17 01:14:22;;;;;;;6.60;1.83;;;13.80;99.90;;;;;;5077396;28;20054;-76
2022/07/17 01:16:49;;;;;;;4.93;2.08;;;13.70;99.90;;;;;;5077423;28;20044;-76
2022/07/17 01:19:14;;;;;;;6.63;2.38;;;13.60;99.90;;;;;;5077354;28;20119;-76
2022/07/17 01:21:45;;;;;;;8.10;2.85;;;13.60;99.90;;;;;;5092890;28;20131;-76
2022/07/17 01:24:12;;;;;;;7.82;2.60;;;13.50;99.90;;;;;;5076215;28;20056;-75
2022/07/17 01:26:40;;;;;;;6.68;2.42;;;13.50;99.90;;;;;;5077644;28;20044;-76
2022/07/17 01:29:08;;;;;;;6.72;2.17;;;13.50;99.90;;;;;;5092706;28;20183;-76
2022/07/17 01:31:33;;;;;;;8.30;2.78;;;13.40;99.90;;;;;;5076974;28;20487;-76
2022/07/17 01:34:02;;;;;;;7.40;2.60;;;13.30;99.90;;;;;;5092682;28;20076;-76
2022/07/17 01:36:28;;;;;;;6.25;3.70;;;13.20;99.90;;;;;;5076967;28;20481;-76
2022/07/17 01:38:54;;;;;;;5.63;2.63;;;13.10;99.90;;;;;;5076927;28;20140;-76
2022/07/17 01:41:20;;;;;;;8.98;2.50;;;13.10;99.90;;;;;;5075890;28;20072;-76
2022/07/17 01:43:46;;;;;;;8.88;2.65;;;13.00;99.90;;;;;;5092648;28;20087;-76
2022/07/17 01:46:11;;;;;;;8.55;3.20;;;12.90;99.90;;;;;;5076848;28;20481;-76
2022/07/17 01:48:37;;;;;;;7.22;2.30;;;12.80;99.90;;;;;;5075477;28;20083;-76
2022/07/17 01:51:03;;;;;;;6.35;2.40;;;12.80;99.90;;;;;;5076796;28;20047;-76
2022/07/17 01:53:29;;;;;;;6.15;2.95;;;12.80;99.90;;;;;;5076623;28;20076;-75
2022/07/17 01:55:55;;;;;;;6.18;2.85;;;12.70;99.90;;;;;;5075237;28;20082;-76
2022/07/17 01:58:20;;;;;;;8.13;2.80;;;12.70;99.90;;;;;;5076507;28;20209;-76
2022/07/17 02:00:46;;;;;;;9.48;3.03;;;12.60;99.90;;;;;;5076557;28;20391;-76
2022/07/17 02:03:12;;;;;;;8.27;2.88;;;12.70;99.90;;;;;;5092120;28;20104;-76
2022/07/17 02:05:37;;;;;;;6.97;3.10;;;12.60;99.90;;;;;;5092162;28;20044;-76
2022/07/17 02:08:03;;;;;;;9.30;3.08;;;12.60;99.90;;;;;;5076339;28;20040;-76
2022/07/17 02:10:29;;;;;;;8.98;3.03;;;12.50;99.90;;;;;;5075190;28;20412;-76
2022/07/17 02:12:55;;;;;;;8.80;3.15;;;12.50;99.90;;;;;;5076268;28;20051;-76
2022/07/17 02:15:20;;;;;;;6.97;2.58;;;12.40;99.90;;;;;;5076333;28;20044;-76
2022/07/17 02:17:46;;;;;;;6.90;2.85;;;12.40;99.90;;;;;;5076288;28;20041;-76
2022/07/17 02:20:12;;;;;;;5.80;2.40;;;12.40;99.90;;;;;;5075659;28;20145;-76
2022/07/17 02:22:38;;;;;;;5.68;2.65;;;12.20;99.90;;;;;;5075264;28;20099;-76
2022/07/17 02:25:06;;;;;;;7.03;2.50;;;12.20;99.90;;;;;;5076164;28;20041;-76
2022/07/17 02:27:32;;;;;;;5.97;2.63;;;12.20;99.90;;;;;;5091747;28;20052;-76
2022/07/17 02:29:58;;;;;;;4.53;2.58;;;12.10;99.90;;;;;;5076031;28;20072;-76
2022/07/17 02:32:23;;;;;;;6.95;3.13;;;12.10;99.90;;;;;;5074689;28;20075;-76
2022/07/17 02:34:49;;;;;;;5.30;2.67;;;12.00;99.90;;;;;;5075966;28;20041;-76
2022/07/17 02:37:15;;;;;;;7.07;3.15;;;12.00;99.90;;;;;;5075845;28;20058;-76
2022/07/17 02:39:52;;;;;;;10.02;3.20;;;12.00;99.90;;;;;;5091535;28;20437;-76
2022/07/17 02:42:19;;;;;;;5.57;3.30;;;12.00;99.90;;;;;;5074495;28;20052;-76
2022/07/17 02:44:46;;;;;;;6.78;2.92;;;11.90;99.90;;;;;;5074733;28;20090;-76
2022/07/17 02:47:12;;;;;;;6.05;3.00;;;11.90;99.90;;;;;;5075746;28;20048;-75
2022/07/17 02:49:37;;;;;;;8.02;3.20;;;11.90;99.90;;;;;;5074416;28;20060;-76
2022/07/17 02:52:03;;;;;;;8.57;3.10;;;11.80;99.90;;;;;;5075353;28;20066;-76
2022/07/17 02:54:29;;;;;;;8.00;3.05;;;11.90;99.90;;;;;;5076001;28;20094;-75
2022/07/17 02:56:54;;;;;;;5.57;3.17;;;11.90;99.90;;;;;;5075562;28;20040;-75
2022/07/17 02:59:20;;;;;;;7.60;2.90;;;11.90;99.90;;;;;;5075357;28;20067;-75
2022/07/17 03:01:45;;;;;;;7.80;3.40;;;12.00;99.90;;;;;;5075443;28;20083;-76
2022/07/17 03:04:11;;;;;;;7.88;3.30;;;12.00;99.90;;;;;;5075305;28;20090;-76
2022/07/17 03:06:37;;;;;;;8.77;3.70;;;12.00;99.90;;;;;;5074120;28;20048;-76
2022/07/17 03:09:02;;;;;;;9.00;3.75;;;12.10;99.90;;;;;;5075028;28;20052;-76
2022/07/17 03:11:28;;;;;;;11.95;4.57;;;12.20;99.90;;;;;;5073903;28;20041;-76
2022/07/17 03:13:53;;;;;;;11.23;3.50;;;12.20;99.90;;;;;;5074957;28;20080;-75
2022/07/17 03:16:19;;;;;;;10.18;4.05;;;12.30;99.90;;;;;;5075119;28;20044;-75
2022/07/17 03:18:45;;;;;;;10.20;4.35;;;12.30;99.90;;;;;;5090761;28;20041;-76
2022/07/17 03:21:10;;;;;;;7.95;4.10;;;12.40;99.90;;;;;;5074598;28;20421;-75
2022/07/17 03:23:36;;;;;;;11.45;4.32;;;12.40;99.90;;;;;;5090337;28;20438;-75
2022/07/17 03:26:01;;;;;;;8.85;4.65;;;12.50;99.90;;;;;;5075026;28;20036;-75
2022/07/17 03:28:27;;;;;;;10.57;4.60;;;12.50;99.90;;;;;;5074585;28;20059;-75
2022/07/17 03:30:53;;;;;;;14.00;4.65;;;12.60;99.90;;;;;;5090065;28;20414;-75
2022/07/17 03:33:18;;;;;;;12.82;4.45;;;12.70;99.90;;;;;;5088813;28;20098;-75
2022/07/17 03:35:44;;;;;;;12.90;5.05;;;12.70;99.90;;;;;;5073903;28;20059;-75
2022/07/17 03:38:09;;;;;;;17.10;4.63;;;12.70;99.90;;;;;;5071601;28;20048;-75
2022/07/17 03:40:35;;;;;;;11.00;4.05;;;12.80;99.90;;;;;;5074154;28;20051;-75
2022/07/17 03:43:01;;;;;;;11.63;4.63;;;12.80;99.90;;;;;;5073084;28;20165;-76
2022/07/17 03:45:26;;;;;;;11.50;3.90;;;12.80;99.90;;;;;;5089877;28;20102;-75
2022/07/17 03:47:52;;;;;;;13.77;4.53;;;12.90;99.90;;;;;;5074166;28;20044;-76
2022/07/17 03:50:17;;;;;;;10.15;4.20;;;12.80;99.90;;;;;;5074328;28;20043;-75
2022/07/17 03:52:43;;;;;;;7.70;4.00;;;12.90;99.90;;;;;;5072761;28;20140;-75
2022/07/17 03:55:09;;;;;;;12.30;3.88;;;12.90;99.90;;;;;;5074283;28;20051;-75
2022/07/17 03:57:35;;;;;;;9.82;3.88;;;12.90;99.90;;;;;;5074284;28;20043;-75
2022/07/17 04:00:01;;;;;;;10.65;4.03;;;12.90;99.90;;;;;;5074337;28;20059;-76
2022/07/17 04:02:26;;;;;;;11.00;4.10;;;12.90;99.90;;;;;;5089577;28;20055;-76
2022/07/17 04:04:52;;;;;;;10.98;4.40;;;12.90;99.90;;;;;;5073799;28;20045;-76
2022/07/17 04:07:27;;;;;;;11.93;3.92;;;12.90;99.90;;;;;;5089538;28;20491;-76
2022/07/17 04:09:57;;;;;;;12.25;4.32;;;12.90;99.90;;;;;;5074134;28;20048;-76
2022/07/17 04:12:23;;;;;;;9.48;4.35;;;12.90;99.90;;;;;;5074059;28;20056;-75
2022/07/17 04:14:49;;;;;;;10.90;4.65;;;13.00;99.90;;;;;;5073973;28;20040;-76
2022/07/17 04:17:15;;;;;;;11.23;4.22;;;13.00;99.90;;;;;;5073875;28;20055;-76
2022/07/17 04:19:40;;;;;;;12.50;4.00;;;13.00;99.90;;;;;;5072432;28;20048;-75
2022/07/17 04:22:06;;;;;;;12.02;4.32;;;13.00;99.90;;;;;;5072252;28;20045;-76
2022/07/17 04:24:32;;;;;;;11.55;4.53;;;13.10;99.90;;;;;;5073843;28;20102;-75
2022/07/17 04:26:57;;;;;;;10.20;4.60;;;13.10;99.90;;;;;;5073910;28;20048;-75
2022/07/17 04:29:23;;;;;;;7.95;4.35;;;13.10;99.90;;;;;;5073722;28;20103;-75
2022/07/17 04:31:49;;;;;;;17.23;5.82;;;13.10;99.90;;;;;;5072515;28;20151;-75
2022/07/17 04:34:14;;;;;;;15.25;6.05;;;13.10;99.90;;;;;;5088940;28;20460;-75
2022/07/17 04:36:40;;;;;;;15.73;6.65;;;13.10;99.90;;;;;;5089080;28;20132;-75
2022/07/17 04:39:06;;;;;;;18.08;6.90;;;13.20;99.90;;;;;;5072441;28;20028;-75
2022/07/17 04:41:31;;;;;;;12.75;5.72;;;13.20;99.90;;;;;;5073535;28;20044;-75
2022/07/17 04:43:57;;;;;;;16.48;6.97;;;13.20;99.90;;;;;;5071806;28;20072;-75
2022/07/17 04:46:22;;;;;;;13.45;6.07;;;13.20;99.90;;;;;;5088916;28;20079;-75
2022/07/17 04:48:48;;;;;;;15.05;5.97;;;13.30;99.90;;;;;;5073596;28;20043;-75
2022/07/17 04:51:14;;;;;;;17.20;6.35;;;13.30;99.90;;;;;;5073341;28;20075;-75
2022/07/17 04:53:39;;;;;;;17.95;5.90;;;13.30;99.90;;;;;;5073465;28;20033;-75
2022/07/17 04:56:05;;;;;;;13.80;6.00;;;13.40;99.90;;;;;;5073309;28;20406;-76
2022/07/17 04:58:30;;;;;;;11.18;5.38;;;13.40;99.90;;;;;;5073486;28;20485;-76
2022/07/17 05:00:56;;;;;;;15.82;5.93;;;13.40;99.90;;;;;;5073183;28;20075;-75
2022/07/17 05:03:22;;;;;;;14.70;6.25;;;13.40;99.90;;;;;;5089041;28;20507;-76
2022/07/17 05:05:47;;;;;;;12.70;5.15;;;13.50;99.90;;;;;;5088782;28;20048;-76
2022/07/17 05:08:13;;;;;;;9.10;4.90;;;13.50;99.90;;;;;;5073455;28;20044;-75
2022/07/17 05:10:38;;;;;;;11.80;4.88;;;13.50;99.90;;;;;;5072169;28;20395;-75
2022/07/17 05:13:04;;;;;;;10.38;5.03;;;13.50;99.90;;;;;;5073282;28;20044;-76
2022/07/17 05:15:30;;;;;;;15.48;5.07;;;13.60;99.90;;;;;;5073264;28;20040;-75
2022/07/17 05:17:55;;;;;;;11.57;5.05;;;13.60;99.90;;;;;;5073316;28;20094;-75
2022/07/17 05:20:21;;;;;;;13.25;4.25;;;13.70;99.90;;;;;;5073106;28;20092;-75
2022/07/17 05:22:47;;;;;;;12.10;4.07;;;13.70;99.90;;;;;;5088993;28;20427;-76
2022/07/17 05:25:12;;;;;;;9.35;4.10;;;13.80;99.90;;;;;;5073015;28;20052;-75
2022/07/17 05:27:38;;;;;;;7.95;4.22;;;13.80;99.90;;;;;;5073103;28;20132;-75
2022/07/17 05:30:04;;;;;;;14.73;3.83;;;13.90;99.90;;;;;;5072979;28;20376;-76
2022/07/17 05:32:30;;;;;;;12.32;3.80;;;14.00;99.90;;;;;;5071935;28;20049;-75
2022/07/17 05:34:56;;;;;;;10.13;3.28;;;14.10;99.90;;;;;;5072881;28;20063;-75
2022/07/17 05:37:21;;;;;;;7.80;3.00;;;14.20;99.90;;;;;;5071941;28;20052;-75
2022/07/17 05:39:47;;;;;;;8.45;2.95;;;14.30;99.90;;;;;;5073182;28;20044;-75
2022/07/17 05:42:12;;;;;;;10.55;3.28;;;14.30;99.90;;;;;;5073229;28;20093;-75
2022/07/17 05:44:38;;;;;;;10.57;3.30;;;14.40;99.90;;;;;;5073087;28;20047;-75
2022/07/17 05:47:04;;;;;;;8.02;2.92;;;14.50;99.90;;;;;;5073071;28;20052;-75
2022/07/17 05:49:29;;;;;;;8.93;3.10;;;14.50;99.90;;;;;;5071901;28;20045;-75
2022/07/17 05:51:55;;;;;;;13.30;3.40;;;14.70;99.90;;;;;;5073020;28;20387;-75
2022/07/17 05:54:20;;;;;;;12.02;3.17;;;14.80;99.90;;;;;;5072921;28;20506;-75
2022/07/17 05:56:46;;;;;;;10.38;2.85;;;15.00;99.90;;;;;;5091395;28;20060;-76
2022/07/17 05:59:12;;;;;;;9.55;3.22;;;15.20;99.90;;;;;;5076526;28;20044;-76
2022/07/17 06:01:37;;;;;;;8.73;2.90;;;15.30;99.90;;;;;;5076531;28;20040;-76
2022/07/17 06:04:03;;;;;;;9.95;3.00;;;15.40;99.90;;;;;;5076441;28;20036;-75
2022/07/17 06:06:28;;;;;;;10.85;2.75;;;15.60;99.90;;;;;;5091809;28;20068;-75
2022/07/17 06:08:54;;;;;;;11.43;2.83;;;15.70;99.90;;;;;;5076224;28;20051;-75
2022/07/17 06:11:20;;;;;;;8.90;2.70;;;15.90;99.90;;;;;;5091776;28;20119;-76
2022/07/17 06:13:45;;;;;;;6.65;2.70;;;16.00;99.90;;;;;;5075938;28;20086;-76
2022/07/17 06:16:11;;;;;;;9.98;3.00;;;15.90;99.90;;;;;;5091588;28;20068;-75
2022/07/17 06:18:36;;;;;;;7.30;2.28;;;15.90;99.90;;;;;;5076317;28;20048;-75
2022/07/17 06:21:02;;;;;;;6.97;2.30;;;15.80;99.90;;;;;;5074720;28;20052;-76
2022/07/17 06:23:28;;;;;;;7.95;2.78;;;15.80;99.90;;;;;;5076145;28;20381;-75
2022/07/17 06:25:53;;;;;;;9.25;3.20;;;15.70;99.90;;;;;;5076120;28;20052;-76
2022/07/17 06:28:19;;;;;;;10.63;2.65;;;15.70;99.90;;;;;;5075795;28;20098;-76
2022/07/17 06:30:44;;;;;;;9.70;2.88;;;15.70;99.90;;;;;;5091420;28;20103;-76
2022/07/17 06:33:10;;;;;;;9.35;2.83;;;15.80;99.90;;;;;;5091559;28;20056;-76
2022/07/17 06:35:36;;;;;;;7.65;2.50;;;15.80;99.90;;;;;;5075769;28;20053;-76
2022/07/17 06:38:02;;;;;;;10.45;2.78;;;15.80;99.90;;;;;;5075601;28;20120;-76
2022/07/17 06:40:28;;;;;;;6.80;2.30;;;15.90;99.90;;;;;;5075552;28;20448;-76
2022/07/17 06:42:54;;;;;;;8.05;2.85;;;15.90;99.90;;;;;;5075347;28;20556;-75
2022/07/17 06:45:19;;;;;;;9.25;2.42;;;15.90;99.90;;;;;;5074333;28;20052;-77
2022/07/17 06:47:45;;;;;;;10.60;3.10;;;15.90;99.90;;;;;;5075701;28;20068;-76
2022/07/17 06:50:10;;;;;;;10.52;3.17;;;15.90;99.90;;;;;;5091274;28;20044;-77
2022/07/17 06:52:36;;;;;;;8.93;3.03;;;16.00;99.90;;;;;;5091192;28;20515;-76
2022/07/17 06:55:02;;;;;;;11.30;3.05;;;16.00;99.90;;;;;;5075363;28;20087;-77
2022/07/17 06:57:28;;;;;;;6.53;2.88;;;16.10;99.90;;;;;;5091107;28;20502;-85
2022/07/17 06:59:53;;;;;;;11.88;2.90;;;16.10;99.90;;;;;;5080756;28;20044;-75
2022/07/17 07:02:19;;;;;;;14.77;3.20;;;16.20;99.90;;;;;;5078147;28;20392;-73
2022/07/17 07:04:45;;;;;;;9.80;2.80;;;16.20;99.90;;;;;;5073737;28;20047;-73
2022/07/17 07:07:11;;;;;;;10.88;2.65;;;16.30;99.90;;;;;;5072910;28;20059;-75
2022/07/17 07:09:37;;;;;;;10.35;2.97;;;16.40;99.90;;;;;;5075076;28;20035;-74
2022/07/17 07:12:03;;;;;;;10.07;2.95;;;16.40;99.90;;;;;;5074775;28;20052;-74
2022/07/17 07:14:28;;;;;;;9.25;2.78;;;16.50;99.90;;;;;;5073412;28;20128;-75
2022/07/17 07:16:54;;;;;;;10.00;2.28;;;16.50;99.90;;;;;;5073674;28;20043;-75
2022/07/17 07:19:20;;;;;;;10.98;2.45;;;16.70;99.90;;;;;;5074985;28;20047;-75
2022/07/17 07:21:45;;;;;;;9.23;2.40;;;16.70;99.90;;;;;;5074484;28;20049;-75
2022/07/17 07:24:11;;;;;;;9.52;2.22;;;16.90;99.90;;;;;;5073296;28;20442;-75
2022/07/17 07:26:36;;;;;;;7.20;2.13;;;17.00;99.90;;;;;;5073175;28;20527;-75
2022/07/17 07:29:02;;;;;;;8.18;2.38;;;17.20;99.90;;;;;;5073457;28;20052;-75
2022/07/17 07:31:28;;;;;;;13.32;2.80;;;17.30;99.90;;;;;;5073147;28;20040;-75
2022/07/17 07:33:53;;;;;;;10.27;2.10;;;17.30;99.90;;;;;;5074326;28;20045;-75
2022/07/17 07:36:19;;;;;;;8.43;2.13;;;17.50;99.90;;;;;;5073023;28;20041;-75
2022/07/17 07:38:45;;;;;;;10.50;2.13;;;17.80;99.90;;;;;;5073054;28;20076;-75
2022/07/17 07:41:11;;;;;;;12.35;2.00;;;18.10;99.90;;;;;;5074371;28;20066;-75
2022/07/17 07:43:37;;;;;;;13.35;2.30;;;18.40;99.90;;;;;;5072968;28;20044;-76
2022/07/17 07:46:03;;;;;;;7.65;2.10;;;18.50;99.90;;;;;;5072777;28;20048;-75
2022/07/17 07:48:32;;;;;;;6.82;1.58;;;18.80;99.90;;;;;;5074416;28;20109;-76
2022/07/17 07:50:58;;;;;;;6.90;2.17;;;19.00;99.90;;;;;;5074099;28;20036;-76
2022/07/17 07:53:23;;;;;;;9.50;2.00;;;19.30;99.90;;;;;;5074225;28;20044;-76
2022/07/17 07:55:49;;;;;;;11.85;1.92;;;19.40;99.90;;;;;;5074128;28;20460;-75
2022/07/17 07:58:15;;;;;;;25.10;2.88;;;19.40;99.90;;;;;;5072665;28;20045;-76
2022/07/17 08:00:44;;;;;;;6.03;1.70;;;19.60;99.90;;;;;;5074207;28;20036;-75
2022/07/17 08:03:10;;;;;;;7.25;1.70;;;19.60;99.90;;;;;;5073791;28;20399;-75
2022/07/17 08:05:36;;;;;;;7.43;2.10;;;19.70;99.90;;;;;;5072361;28;20048;-75
2022/07/17 08:08:02;;;;;;;9.15;2.05;;;19.90;99.90;;;;;;5078263;28;20055;-75
2022/07/17 08:10:28;;;;;;;10.02;2.15;;;20.10;99.90;;;;;;5079661;28;20067;-76
2022/07/17 08:12:54;;;;;;;9.38;1.85;;;20.20;99.90;;;;;;5073789;28;20044;-75
2022/07/17 08:15:21;;;;;;;5.53;1.50;;;20.20;99.90;;;;;;5073915;28;20086;-75
2022/07/17 08:17:48;;;;;;;14.73;2.28;;;20.30;99.90;;;;;;5073856;28;20037;-75
2022/07/17 08:20:15;;;;;;;8.07;1.92;;;20.30;99.90;;;;;;5071399;28;20064;-75
2022/07/17 08:22:42;;;;;;;6.93;1.50;;;20.60;99.90;;;;;;5073532;28;20094;-75
2022/07/17 08:25:08;;;;;;;11.43;2.03;;;20.50;99.90;;;;;;5073450;28;20472;-75
2022/07/17 08:27:38;;;;;;;14.48;2.55;;;20.80;99.90;;;;;;5089314;28;20048;-76
2022/07/17 08:30:06;;;;;;;6.75;1.50;;;20.80;99.90;;;;;;5074557;28;20048;-76
2022/07/17 08:32:32;;;;;;;6.70;2.00;;;21.00;99.90;;;;;;5092369;28;20082;-76
2022/07/17 08:34:57;;;;;;;6.88;1.98;;;21.00;99.90;;;;;;5093716;28;20043;-76
2022/07/17 08:37:24;;;;;;;7.45;1.90;;;20.90;99.90;;;;;;5091680;28;20126;-76
2022/07/17 08:39:50;;;;;;;7.82;2.10;;;20.90;99.90;;;;;;5082455;28;20044;-76
2022/07/17 08:42:16;;;;;;;5.40;1.48;;;20.90;99.90;;;;;;5072284;28;20047;-75
2022/07/17 08:44:42;;;;;;;4.35;1.52;;;21.20;99.90;;;;;;5089721;28;20052;-75
2022/07/17 08:47:10;;;;;;;8.55;1.70;;;21.20;99.90;;;;;;5091583;28;20116;-76
2022/07/17 08:49:41;;;;;;;6.93;1.80;;;21.30;99.90;;;;;;5083881;28;20116;-76
2022/07/17 08:52:07;;;;;;;10.27;1.80;;;21.60;99.90;;;;;;5073436;28;20045;-76
2022/07/17 08:54:33;;;;;;;9.10;1.50;;;21.60;99.90;;;;;;5071794;28;20121;-76
2022/07/17 08:56:59;;;;;;;7.85;2.28;;;21.50;99.90;;;;;;5073373;28;20053;-76
2022/07/17 08:59:24;;;;;;;7.35;2.22;;;21.80;99.90;;;;;;5073293;28;20043;-76
2022/07/17 09:01:50;;;;;;;7.75;1.70;;;21.90;99.90;;;;;;5072176;28;20068;-75
2022/07/17 09:04:17;;;;;;;4.90;1.88;;;22.10;99.90;;;;;;5073084;28;20070;-75
2022/07/17 09:06:42;;;;;;;10.70;1.60;;;22.00;99.90;;;;;;5073203;28;20043;-75
2022/07/17 09:09:11;;;;;;;7.47;1.90;;;21.90;99.90;;;;;;5084652;28;20044;-77
2022/07/17 09:11:50;;;;;;;6.10;1.75;;;22.10;99.90;;;;;;5071740;28;20066;-75
2022/07/17 09:14:17;;;;;;;7.47;1.55;;;22.00;99.90;;;;;;5073085;28;20055;-75
2022/07/17 09:16:57;;;;;;;6.03;1.50;;;22.10;99.90;;;;;;5073192;28;20056;-75
2022/07/17 09:19:26;;;;;;;6.57;1.60;;;22.20;99.90;;;;;;5080195;28;20054;-75
2022/07/17 09:22:09;;;;;;;5.45;1.90;;;22.40;99.90;;;;;;5091700;28;20214;-75
2022/07/17 09:24:44;;;;;;;7.65;1.60;;;22.10;99.90;;;;;;5093130;28;20047;-76
2022/07/17 09:27:11;;;;;;;6.05;1.65;;;22.40;99.90;;;;;;5093447;28;20117;-76
2022/07/17 09:29:56;;;;;;;9.88;2.25;;;22.30;99.90;;;;;;5092040;28;20086;-77
2022/07/17 09:32:24;;;;;;;10.90;1.70;;;22.20;99.90;;;;;;5097230;28;20043;-76
2022/07/17 09:34:51;;;;;;;6.65;2.05;;;22.30;99.90;;;;;;5109063;28;20044;-76
2022/07/17 09:37:17;;;;;;;6.32;1.50;;;22.20;99.90;;;;;;5095043;28;20059;-75
2022/07/17 09:39:43;;;;;;;7.35;1.77;;;22.30;99.90;;;;;;5092905;28;20415;-75
2022/07/17 09:42:09;;;;;;;4.60;1.90;;;22.40;99.90;;;;;;5094947;28;20054;-75
2022/07/17 09:44:35;;;;;;;4.38;2.08;;;22.50;99.90;;;;;;5094357;28;20131;-74
2022/07/17 09:47:02;;;;;;;14.13;2.33;;;22.20;99.90;;;;;;5096526;28;20127;-75
2022/07/17 09:49:28;;;;;;;7.20;2.42;;;22.40;99.90;;;;;;5096900;28;20044;-75
2022/07/17 09:51:54;;;;;;;6.88;2.22;;;22.40;99.90;;;;;;5095254;28;20094;-75
2022/07/17 09:54:22;;;;;;;4.53;1.58;;;22.70;99.90;;;;;;5096519;28;20044;-75
2022/07/17 09:56:51;;;;;;;8.20;1.77;;;23.00;99.90;;;;;;5095373;28;20399;-75
2022/07/17 09:59:18;;;;;;;5.68;1.90;;;23.10;99.90;;;;;;5095582;28;20063;-75
2022/07/17 10:01:49;;;;;;;5.75;1.70;;;23.20;99.90;;;;;;5095597;28;20047;-75
2022/07/17 10:04:16;;;;;;;5.10;2.08;;;23.10;99.90;;;;;;5095637;28;20044;-75
2022/07/17 10:06:43;;;;;;;6.22;1.70;;;23.10;99.90;;;;;;5095373;28;20044;-76
2022/07/17 10:09:08;;;;;;;6.30;2.20;;;23.40;99.90;;;;;;5096517;28;20083;-75
2022/07/17 10:11:37;;;;;;;6.13;2.15;;;23.50;99.90;;;;;;5096415;28;20071;-76
2022/07/17 10:14:13;;;;;;;5.03;1.90;;;23.40;99.90;;;;;;5096341;28;20044;-75
2022/07/17 10:16:39;;;;;;;4.65;1.60;;;23.50;99.90;;;;;;5095151;28;20380;-75
2022/07/17 10:19:19;;;;;;;5.07;2.55;;;23.60;99.90;;;;;;5096081;28;20044;-76
2022/07/17 10:22:05;;;;;;;4.20;1.83;;;23.80;99.90;;;;;;5094602;28;20511;-75
2022/07/17 10:24:31;;;;;;;6.75;1.92;;;23.80;99.90;;;;;;5096352;28;20048;-75
2022/07/17 10:26:58;;;;;;;3.78;1.77;;;24.00;99.90;;;;;;5095941;28;20059;-75
2022/07/17 10:29:29;;;;;;;8.45;2.13;;;23.90;99.90;;;;;;5095899;28;20048;-75
2022/07/17 10:31:55;;;;;;;6.53;1.95;;;23.90;99.90;;;;;;5095920;28;20122;-76
2022/07/17 10:34:43;;;;;;;8.27;1.85;;;23.80;99.90;;;;;;5095665;28;20039;-77
2022/07/17 10:37:32;;;;;;;5.30;1.70;;;24.00;99.90;;;;;;5095983;28;20119;-76
2022/07/17 10:40:04;;;;;;;5.95;1.70;;;24.10;99.90;;;;;;5094547;28;20051;-76
2022/07/17 10:42:56;;;;;;;6.53;1.60;;;23.90;99.90;;;;;;5094722;28;20114;-77
2022/07/17 10:45:44;;;;;;;4.37;1.90;;;24.20;99.90;;;;;;5096136;28;20056;-77
2022/07/17 10:48:15;;;;;;;4.80;1.83;;;24.40;99.90;;;;;;5096039;28;20290;-77
2022/07/17 10:50:53;;;;;;;6.60;2.10;;;24.40;99.90;;;;;;5095710;28;20044;-76
2022/07/17 10:53:29;;;;;;;4.93;2.15;;;24.50;99.90;;;;;;5095686;28;20479;-77
2022/07/17 10:56:05;;;;;;;4.20;1.63;;;24.40;99.90;;;;;;5095685;28;20046;-77
2022/07/17 10:58:42;;;;;;;6.13;1.90;;;24.50;99.90;;;;;;5094561;28;20123;-77
2022/07/17 11:01:12;;;;;;;5.20;1.70;;;24.80;99.90;;;;;;5095553;28;20479;-76
2022/07/17 11:03:45;;;;;;;4.00;1.70;;;24.60;99.90;;;;;;5094219;28;20059;-76
2022/07/17 11:06:17;;;;;;;8.75;1.80;;;24.50;99.90;;;;;;5095552;28;20105;-77
2022/07/17 11:08:51;;;;;;;6.63;1.65;;;24.60;99.90;;;;;;5094419;28;20085;-77
2022/07/17 11:11:20;;;;;;;6.43;1.67;;;24.90;99.90;;;;;;5095363;28;20036;-77
2022/07/17 11:13:45;;;;;;;4.63;1.98;;;25.00;99.90;;;;;;5095063;28;20402;-77
2022/07/17 11:16:11;;;;;;;5.25;1.85;;;25.00;99.90;;;;;;5095381;28;20037;-76
2022/07/17 11:18:37;;;;;;;7.28;1.95;;;25.30;99.90;;;;;;5094080;28;20055;-77
2022/07/17 11:21:04;;;;;;;5.07;2.10;;;25.40;99.90;;;;;;5095019;28;20112;-77
2022/07/17 11:23:33;;;;;;;6.80;1.77;;;25.30;99.90;;;;;;5095166;28;20051;-77
2022/07/17 11:26:06;;;;;;;5.15;2.03;;;25.30;99.90;;;;;;5093719;28;20048;-77
2022/07/17 11:28:40;;;;;;;4.03;2.45;;;25.20;99.90;;;;;;5093979;28;20093;-77
2022/07/17 11:31:35;;;;;;;5.50;1.75;;;25.10;99.90;;;;;;5094878;28;20462;-77
2022/07/17 11:34:08;;;;;;;3.90;1.83;;;25.40;99.70;;;;;;5097614;28;20063;-76
2022/07/17 11:36:43;;;;;;;3.97;1.70;;;25.10;99.90;;;;;;5095048;28;20032;-77
2022/07/17 11:39:14;;;;;;;7.93;2.05;;;25.20;99.90;;;;;;5093821;28;20048;-77
2022/07/17 11:41:48;;;;;;;4.68;1.58;;;25.10;99.90;;;;;;5095005;28;20040;-77
2022/07/17 11:44:19;;;;;;;3.92;1.95;;;25.30;99.90;;;;;;5094941;28;20090;-78
2022/07/17 11:46:46;;;;;;;7.45;2.38;;;25.20;99.90;;;;;;5094888;28;20040;-77
2022/07/17 11:49:27;;;;;;;3.60;1.75;;;25.10;99.90;;;;;;5094740;28;20040;-77
2022/07/17 11:51:55;;;;;;;5.20;2.00;;;25.20;99.90;;;;;;5094673;28;20055;-77
2022/07/17 11:54:21;;;;;;;5.28;2.03;;;25.20;99.90;;;;;;5092849;28;20189;-77
2022/07/17 11:56:56;;;;;;;5.07;2.08;;;25.30;99.90;;;;;;5094486;28;20118;-77
2022/07/17 11:59:29;;;;;;;5.88;2.13;;;25.10;99.90;;;;;;5093339;28;20048;-77
2022/07/17 12:01:55;;;;;;;5.05;2.10;;;25.20;99.90;;;;;;5094271;28;20036;-78
2022/07/17 12:04:21;;;;;;;7.20;2.20;;;25.20;99.90;;;;;;5094447;28;20040;-77
2022/07/17 12:07:00;;;;;;;4.40;1.83;;;25.00;99.90;;;;;;5093217;28;20490;-77
2022/07/17 12:09:34;;;;;;;9.50;2.70;;;25.20;99.90;;;;;;5094396;28;20044;-77
2022/07/17 12:12:01;;;;;;;7.50;1.77;;;25.30;99.90;;;;;;5109821;28;20048;-77
2022/07/17 12:14:27;;;;;;;8.05;2.10;;;25.30;99.90;;;;;;5094021;28;20044;-77
2022/07/17 12:16:57;;;;;;;4.15;2.03;;;25.50;99.90;;;;;;5094244;28;20036;-77
2022/07/17 12:19:24;;;;;;;4.88;2.00;;;25.50;99.90;;;;;;5094025;28;20395;-78
2022/07/17 12:22:04;;;;;;;5.47;2.25;;;25.50;99.90;;;;;;5092496;28;20156;-77
2022/07/17 12:24:36;;;;;;;7.35;2.60;;;25.30;99.90;;;;;;5093776;28;20534;-77
2022/07/17 12:27:04;;;;;;;6.30;2.50;;;25.40;99.90;;;;;;5093830;28;20507;-77
2022/07/17 12:29:30;;;;;;;5.53;2.40;;;25.40;99.90;;;;;;5094040;28;20036;-77
2022/07/17 12:32:08;;;;;;;7.22;2.38;;;25.50;99.90;;;;;;5092619;28;20051;-77
2022/07/17 12:34:36;;;;;;;7.28;2.42;;;25.20;99.60;;;;;;5093859;28;20040;-77
2022/07/17 12:37:03;;;;;;;6.90;2.58;;;25.30;99.90;;;;;;5093680;28;20044;-76
2022/07/17 12:39:28;;;;;;;5.40;1.95;;;25.30;99.90;;;;;;5092642;28;20040;-77
2022/07/17 12:41:54;;;;;;;6.13;2.20;;;25.50;99.90;;;;;;5093903;28;20395;-77
2022/07/17 12:44:20;;;;;;;4.90;2.42;;;25.50;99.90;;;;;;5093570;28;20470;-77